Ana Sayfa
METAR-TAF:

METAR-TAF

Havaalanları :

St. Johns, Arizona, Amerika Birleşik Devletleri

Enlem: 34-31-06N, Boylam: 109-22-45W, yükseklik: 1747 m

Güncel hava durumu gözlemi

Rapor saat 01:54 UTC de 49 dakika önce yapıldı.
Sakin rüzgar
Sıcaklık 6°C
Nem 87%
Basınç 1017 hPa
Görüş mesafesi: 16.1 km
4100 ft yükseklikte parçalı çok bulutlu
6000 ft yükseklikte çok bulutlu

METAR: KSJN 220154Z AUTO 00000KT 10SM BKN041 OVC060 06/04 A3004 RMK AO2 SLP149 T00610039

Saat: 19:43 (02:43 UTC)


TAF: eksik

4.000'den fazla havaalanı için hava durumu gözlemleri ve tahminleri (METAR ve TAF raporları).

Kullanılabilir istasyonlar harita üzerinde sarı ve kırmızı noktalarla gösterilir.

İstasyonun adını görmek için fareyi noktanın üzerinde gezdirin.

Sonrasında hava gözlem ve tahminlerini görmek için tıklayın.

Haritayı değiştirmek için: yaklaştırmak için siyah artı işaretli yeşil düğmeye ve uzaklaştırmak için de eksi işaretli düğmeye hızla tıklayın; bitişik haritalar için yeşil okları kullanın.


METAR-TAF: